Time;durP1;ratioP1;P1;durP2;ratioP2;P2;SDS_P1;SDS_P2;PMS_P1;PMS_P2;Temp;Humidity;BMP_temperature;BMP_pressure;BME280_temperature;BME280_humidity;BME280_pressure;Samples;Min_cycle;Max_cycle;Signal;HPM_P1;HPM_P2
2023/01/26 00:03:56;;;;;;;;;;;5.90;58.40;;;3.91;62.80;102025.91;12244734;19;19911;-88
2023/01/26 00:08:00;;;;;;;;;;;5.80;58.30;;;4.12;62.83;102061.09;12247454;19;19919;-88
2023/01/26 00:12:02;;;;;;;;;;;5.80;58.50;;;3.67;62.73;101986.47;12243690;19;19943;-88
2023/01/26 00:16:07;;;;;;;;;;;5.80;58.40;;;3.62;62.91;101966.66;12240338;19;19929;-88
2023/01/26 00:20:09;;;;;;;;;;;5.80;58.30;;;3.61;62.78;101975.28;12242695;19;19923;-88
2023/01/26 00:24:11;;;;;;;;;;;5.70;58.30;;;3.82;62.81;102000.97;12241215;19;19947;-88
2023/01/26 00:28:12;;;;;;;;;;;6.00;58.60;;;3.63;62.92;101970.97;12243685;19;19918;-87
2023/01/26 00:32:14;;;;;;;;;;;5.70;58.40;;;3.52;62.86;101956.41;12243637;19;19911;-87
2023/01/26 00:36:16;;;;;;;;;;;5.80;58.40;;;3.77;62.79;102000.16;12238205;19;19918;-88
2023/01/26 00:40:17;;;;;;;;;;;5.80;58.40;;;3.60;62.81;101958.09;12248173;19;20303;-88
2023/01/26 00:44:19;;;;;;;;;;;5.70;58.40;;;3.51;62.79;101954.69;12253702;19;20431;-88
2023/01/26 00:48:23;;;;;;;;;;;5.70;58.40;;;3.55;62.72;101956.38;12255505;19;19926;-87
2023/01/26 00:52:25;;;;;;;;;;;5.70;58.40;;;4.07;62.81;102042.16;12256102;19;20347;-87
2023/01/26 00:56:34;;;;;;;;;;;5.70;58.40;;;3.32;62.84;101912.63;12251251;19;19930;-87
2023/01/26 01:00:37;;;;;;;;;;;5.70;58.50;;;3.37;62.84;101920.34;12254620;19;20373;-88
2023/01/26 01:04:39;;;;;;;;;;;5.70;58.30;;;3.78;62.88;101994.13;12253822;19;19911;-88
2023/01/26 01:08:43;;;;;;;;;;;5.70;58.40;;;3.79;62.85;102008.75;12253423;19;19929;-88
2023/01/26 01:12:45;;;;;;;;;;;5.70;58.40;;;3.74;62.81;102002.75;12255150;19;19914;-88
2023/01/26 01:16:49;;;;;;;;;;;5.70;58.40;;;3.35;62.63;101921.22;12248654;19;19911;-88
2023/01/26 01:20:51;;;;;;;;;;;5.80;58.40;;;3.38;62.71;101926.38;12255605;19;19914;-87
2023/01/26 01:24:53;;;;;;;;;;;5.70;58.40;;;3.49;62.81;101946.09;12252939;19;19914;-87
2023/01/26 01:28:54;;;;;;;;;;;5.70;58.50;;;3.46;62.86;101943.53;12253869;19;19907;-87
2023/01/26 01:32:58;;;;;;;;;;;5.90;58.40;;;3.47;62.83;101950.41;12253544;19;19911;-87
2023/01/26 01:37:00;;;;;;;;;;;5.60;58.40;;;3.49;62.89;101932.34;12254154;19;19918;-87
2023/01/26 01:41:04;;;;;;;;;;;5.60;58.40;;;3.50;62.84;101926.28;12253611;19;19918;-87
2023/01/26 01:45:28;;;;;;;;;;;5.60;58.30;;;3.96;62.85;101999.16;12250581;19;19936;-88
2023/01/26 01:49:30;;;;;;;;;;;5.70;58.30;;;3.97;62.94;101998.31;12252268;19;19910;-87
2023/01/26 01:53:38;;;;;;;;;;;5.70;58.40;;;3.53;62.98;101915.94;12252147;19;20310;-87
2023/01/26 01:57:46;;;;;;;;;;;5.90;58.40;;;3.32;62.80;101870.44;12255797;19;19978;-88
2023/01/26 02:01:49;;;;;;;;;;;5.70;58.30;;;3.84;62.96;101963.09;12256890;19;19923;-88
2023/01/26 02:06:12;;;;;;;;;;;5.80;58.30;;;4.00;62.97;101979.34;12253252;19;19911;-88
2023/01/26 02:10:18;;;;;;;;;;;5.70;58.30;;;3.55;62.90;101902.16;12254726;19;20247;-88
2023/01/26 02:14:23;;;;;;;;;;;5.70;58.30;;;3.55;62.79;101896.13;12249528;19;19922;-88
2023/01/26 02:18:25;;;;;;;;;;;5.80;58.30;;;3.69;62.88;101908.94;12253916;19;20337;-88
2023/01/26 02:22:41;;;;;;;;;;;5.70;58.30;;;3.99;62.92;101952.59;12250095;19;19911;-88
2023/01/26 02:26:43;;;;;;;;;;;5.70;58.20;;;3.54;62.95;101877.19;12251353;19;19927;-88
2023/01/26 02:30:45;;;;;;;;;;;5.70;58.70;;;3.84;62.71;101911.41;12253123;19;19919;-88
2023/01/26 02:34:46;;;;;;;;;;;5.70;58.30;;;3.40;62.75;101842.84;12251690;19;19918;-88
2023/01/26 02:39:03;;;;;;;;;;;5.70;58.30;;;3.61;62.84;101870.25;12251850;19;20006;-88
2023/01/26 02:43:05;;;;;;;;;;;5.70;58.20;;;3.56;62.67;101851.34;12250555;19;19918;-88
2023/01/26 02:47:11;;;;;;;;;;;5.90;58.40;;;3.53;63.01;101848.78;12251412;19;20243;-87
2023/01/26 02:51:14;;;;;;;;;;;5.70;58.20;;;3.50;62.86;101841.94;12251166;19;20346;-88
2023/01/26 02:55:27;;;;;;;;;;;5.70;58.30;;;3.55;62.91;101839.31;12249647;19;19922;-88
2023/01/26 02:59:28;;;;;;;;;;;6.00;58.40;;;3.74;62.87;101871.00;12252276;19;19926;-88
2023/01/26 03:03:43;;;;;;;;;;;5.90;58.40;;;3.54;62.95;101838.47;12250307;19;19907;-88
2023/01/26 03:07:45;;;;;;;;;;;6.00;58.40;;;3.59;62.93;101842.72;12251226;19;19939;-88
2023/01/26 03:11:47;;;;;;;;;;;5.70;58.30;;;3.53;62.99;101836.72;12253456;19;19970;-87
2023/01/26 03:15:53;;;;;;;;;;;5.70;58.30;;;3.45;62.80;101823.03;12249716;19;19918;-88
2023/01/26 03:28:40;;;;;;;;;;;5.80;58.30;;;3.37;62.69;101814.50;12251722;19;20250;-88
2023/01/26 03:32:41;;;;;;;;;;;5.90;58.30;;;3.84;62.94;101893.31;12253716;19;19918;-88
2023/01/26 03:36:47;;;;;;;;;;;5.70;58.30;;;3.68;62.84;101858.16;12248003;19;19911;-87
2023/01/26 03:58:12;;;;;;;;;;;5.90;58.40;;;3.53;62.86;101822.97;12249062;19;20444;-87
2023/01/26 04:10:57;;;;;;;;;;;5.70;58.30;;;3.78;63.02;101867.56;12253383;19;20317;-88
2023/01/26 04:23:41;;;;;;;;;;;5.70;58.30;;;3.46;62.96;101809.28;12262087;19;19923;-87
2023/01/26 04:27:44;;;;;;;;;;;5.70;58.30;;;3.94;62.96;101876.00;12260902;19;20283;-87
2023/01/26 04:31:48;;;;;;;;;;;5.70;58.30;;;3.59;62.79;101811.72;12262200;19;19914;-87
2023/01/26 04:35:53;;;;;;;;;;;5.70;58.30;;;3.59;62.93;101811.72;12258547;19;19930;-87
2023/01/26 04:39:55;;;;;;;;;;;6.00;58.40;;;3.64;62.84;101803.06;12263205;19;19906;-87
2023/01/26 04:43:57;;;;;;;;;;;5.80;58.40;;;3.60;63.06;101795.38;12259896;19;19915;-88
2023/01/26 04:47:59;;;;;;;;;;;6.00;58.40;;;3.60;62.95;101810.88;12261475;19;19963;-88
2023/01/26 04:52:01;;;;;;;;;;;5.80;58.40;;;3.35;62.77;101759.44;12261176;19;19981;-87
2023/01/26 04:56:08;;;;;;;;;;;5.70;58.20;;;3.92;62.70;101860.53;12255279;19;19922;-88
2023/01/26 05:00:10;;;;;;;;;;;5.70;58.20;;;3.36;62.71;101757.72;12256848;19;20353;-88
2023/01/26 05:04:12;;;;;;;;;;;5.70;58.10;;;3.53;62.84;101787.66;12256283;19;19933;-88
2023/01/26 05:08:17;;;;;;;;;;;5.70;58.30;;;3.53;62.96;101776.50;12252042;19;19919;-88
2023/01/26 05:12:41;;;;;;;;;;;5.60;58.20;;;3.68;62.90;101798.75;12258433;19;19939;-88
2023/01/26 05:17:18;;;;;;;;;;;5.70;58.20;;;3.61;62.98;101789.34;12250772;19;20266;-89
2023/01/26 05:21:32;;;;;;;;;;;5.70;58.20;;;3.59;62.97;101797.09;12256836;19;19931;-88
2023/01/26 05:25:34;;;;;;;;;;;5.90;58.30;;;3.43;62.88;101772.28;12249540;19;19926;-88
2023/01/26 05:29:42;;;;;;;;;;;5.70;58.30;;;3.53;63.06;101789.41;12255704;19;19974;-88
2023/01/26 05:33:44;;;;;;;;;;;5.70;58.40;;;3.61;62.95;101797.09;12253503;19;19922;-88
2023/01/26 05:37:48;;;;;;;;;;;5.70;58.40;;;3.57;62.86;101785.94;12255260;19;19915;-88
2023/01/26 05:41:50;;;;;;;;;;;5.70;58.30;;;3.53;63.01;101786.81;12256968;19;19946;-88
2023/01/26 05:45:52;;;;;;;;;;;5.80;58.40;;;3.43;62.74;101769.69;12255857;19;20404;-88
2023/01/26 05:49:57;;;;;;;;;;;5.80;58.40;;;3.50;63.01;101782.53;12257758;19;19978;-88
2023/01/26 05:54:05;;;;;;;;;;;5.90;58.40;;;3.32;62.80;101749.13;12254595;19;19918;-88
2023/01/26 05:58:07;;;;;;;;;;;5.60;58.30;;;3.88;62.90;101825.22;12253829;19;20344;-88
2023/01/26 06:02:12;;;;;;;;;;;5.90;58.40;;;3.88;62.83;101821.81;12253835;19;20420;-88
2023/01/26 06:06:17;;;;;;;;;;;5.80;58.20;;;3.71;63.02;101788.38;12251972;19;20414;-88
2023/01/26 06:10:26;;;;;;;;;;;5.70;58.20;;;3.98;62.84;101847.53;12253397;19;20003;-88
2023/01/26 06:14:39;;;;;;;;;;;6.00;58.40;;;3.43;62.90;101757.66;12252856;19;19910;-88
2023/01/26 06:18:41;;;;;;;;;;;5.60;58.30;;;3.54;62.81;101780.81;12253138;19;19921;-88
2023/01/26 06:22:43;;;;;;;;;;;5.90;58.30;;;3.43;63.08;101770.56;12253997;19;19926;-88
2023/01/26 06:26:48;;;;;;;;;;;6.00;58.40;;;3.55;62.81;101791.09;12249649;19;20714;-88
2023/01/26 06:30:52;;;;;;;;;;;5.70;58.20;;;3.44;63.02;101789.50;12252923;19;19950;-88
2023/01/26 06:34:54;;;;;;;;;;;5.70;58.30;;;3.78;62.92;101831.38;12251254;19;19914;-88
2023/01/26 06:38:58;;;;;;;;;;;5.70;58.30;;;3.56;62.80;101797.13;12252322;19;19939;-88
2023/01/26 06:43:00;;;;;;;;;;;5.70;58.40;;;3.49;62.98;101788.59;12252424;19;19915;-88
2023/01/26 06:47:01;;;;;;;;;;;5.70;58.30;;;3.41;62.93;101787.78;12250085;19;20007;-88
2023/01/26 06:51:38;;;;;;;;;;;5.70;58.30;;;3.89;62.98;101878.66;12251967;19;19978;-88
2023/01/26 06:55:40;;;;;;;;;;;5.60;58.20;;;3.34;62.88;101780.97;12248376;19;19934;-88
2023/01/26 07:00:01;;;;;;;;;;;5.50;58.20;;;3.33;62.88;101782.69;12251720;19;19914;-88
2023/01/26 07:04:25;;;;;;;;;;;5.60;58.30;;;3.38;62.97;101790.41;12250708;19;19918;-87
2023/01/26 07:08:44;;;;;;;;;;;5.60;58.30;;;3.43;62.68;101795.50;12252288;19;19919;-88
2023/01/26 07:12:46;;;;;;;;;;;5.80;58.40;;;3.37;62.97;101793.84;12249579;19;20250;-91
2023/01/26 07:16:48;;;;;;;;;;;5.50;58.20;;;3.40;62.89;101796.38;12240339;19;19918;-89
2023/01/26 07:20:49;;;;;;;;;;;5.50;58.30;;;3.37;62.88;101793.84;12251733;19;19919;-90
2023/01/26 07:24:50;;;;;;;;;;;5.70;58.30;;;3.80;62.82;101888.19;12250004;19;20301;-91
2023/01/26 07:28:52;;;;;;;;;;;5.50;58.20;;;3.28;62.76;101784.44;12249870;19;20321;-89
2023/01/26 07:32:53;;;;;;;;;;;5.50;58.20;;;3.25;62.79;101788.78;12246012;19;19934;-89
2023/01/26 07:36:55;;;;;;;;;;;5.40;58.30;;;3.25;62.93;101781.91;12242453;19;19934;-89
2023/01/26 07:40:57;;;;;;;;;;;5.40;58.20;;;3.24;62.87;101784.47;12247772;19;19927;-87
2023/01/26 07:45:01;;;;;;;;;;;5.40;58.20;;;3.13;62.88;101760.47;12246504;19;19925;-90
2023/01/26 07:49:03;;;;;;;;;;;5.40;58.20;;;3.26;62.98;101787.91;12249362;19;19982;-91
2023/01/26 07:53:04;;;;;;;;;;;5.50;58.30;;;3.07;62.88;101751.06;12260344;19;19911;-90
2023/01/26 07:57:07;;;;;;;;;;;5.50;58.30;;;3.34;62.95;101796.44;12260345;19;19923;-90
2023/01/26 08:01:13;;;;;;;;;;;5.50;58.30;;;3.35;62.80;101795.59;12261582;19;19914;-90
2023/01/26 08:05:14;;;;;;;;;;;5.50;58.20;;;3.29;62.94;101787.88;12257972;19;19922;-90
2023/01/26 08:09:16;;;;;;;;;;;5.50;58.30;;;3.67;62.92;101854.72;12260780;19;19918;-89
2023/01/26 08:13:17;;;;;;;;;;;5.50;58.20;;;3.26;62.84;101775.84;12259427;19;19922;-90
2023/01/26 08:17:19;;;;;;;;;;;5.70;58.30;;;3.39;62.91;101791.25;12256242;19;19922;-91
2023/01/26 08:21:36;;;;;;;;;;;5.50;58.30;;;3.40;62.79;101801.56;12261254;19;19944;-91
2023/01/26 08:29:55;;;;;;;;;;;5.50;58.10;;;3.38;62.84;101813.63;12267101;19;20347;-90
2023/01/26 08:33:57;;;;;;;;;;;5.50;58.20;;;3.42;62.76;101804.97;12259596;19;20258;-91
2023/01/26 08:37:58;;;;;;;;;;;5.50;58.20;;;3.32;62.85;101795.59;12258901;19;19931;-92
2023/01/26 08:42:00;;;;;;;;;;;5.50;58.20;;;3.26;62.75;101783.59;12258937;19;19970;-92
2023/01/26 08:46:02;;;;;;;;;;;5.50;58.30;;;3.33;62.67;101802.50;12254406;19;19919;-92
2023/01/26 08:50:04;;;;;;;;;;;5.50;58.20;;;3.20;62.75;101775.06;12259840;19;19932;-92
2023/01/26 08:54:09;;;;;;;;;;;5.50;58.20;;;3.22;62.91;101779.34;12258008;19;19945;-91
2023/01/26 08:58:11;;;;;;;;;;;5.50;58.20;;;3.28;62.81;101784.44;12259673;19;19911;-92
2023/01/26 09:02:13;;;;;;;;;;;5.50;58.30;;;3.28;62.94;101783.59;12257114;19;19974;-91
2023/01/26 09:06:17;;;;;;;;;;;5.50;58.30;;;3.41;62.83;101811.03;12254380;19;19922;-92
2023/01/26 09:10:19;;;;;;;;;;;5.50;58.20;;;3.31;62.97;101805.06;12257910;19;19918;-91
2023/01/26 09:14:21;;;;;;;;;;;5.80;58.40;;;3.36;63.02;101807.63;12255853;19;19915;-91
2023/01/26 09:18:25;;;;;;;;;;;5.50;58.30;;;3.35;62.93;101811.09;12260321;19;19919;-91
2023/01/26 09:22:27;;;;;;;;;;;5.50;58.30;;;3.21;62.87;101785.34;12257015;19;19910;-92
2023/01/26 09:26:47;;;;;;;;;;;5.50;58.30;;;3.78;63.06;101888.22;12252426;19;19990;-92
2023/01/26 09:30:49;;;;;;;;;;;5.50;58.20;;;3.19;62.73;101794.00;12257761;19;19919;-91
2023/01/26 09:34:50;;;;;;;;;;;5.40;58.20;;;3.30;62.69;101820.59;12253259;19;19911;-92
2023/01/26 09:39:04;;;;;;;;;;;5.50;58.70;;;3.27;62.77;101818.03;12254817;19;20291;-91
2023/01/26 09:48:34;;;;;;;;;;;5.40;58.20;;;3.27;62.73;101823.19;12252747;19;19914;-91
2023/01/26 09:52:49;;;;;;;;;;;5.40;58.20;;;3.32;62.74;101835.19;12253697;19;19925;-91
2023/01/26 09:57:13;;;;;;;;;;;5.40;58.20;;;3.04;62.85;101785.47;12251178;19;19986;-91
2023/01/26 10:15:26;;;;;;;;;;;5.40;58.20;;;3.17;62.75;101782.81;12248488;19;19932;-91
2023/01/26 10:20:20;;;;;;;;;;;;;;;;;;;;;
2023/01/26 10:25:30;;;;;;;;;;;;;;;;;;;;;
2023/01/26 10:35:30;;;;;;;;;;;;;;;;;;;;;
2023/01/26 10:40:11;;;;;;;;;;;5.20;58.10;;;3.66;62.89;101854.72;12250566;19;19923;-91
2023/01/26 10:44:34;;;;;;;;;;;5.40;58.20;;;3.42;62.90;101825.63;12248665;19;19919;-90
2023/01/26 10:53:40;;;;;;;;;;;5.30;58.20;;;3.03;62.69;101755.41;12251519;19;19935;-91
2023/01/26 10:58:22;;;;;;;;;;;5.30;58.30;;;3.07;62.74;101749.34;12257490;19;19914;-94
2023/01/26 11:02:50;;;;;;;;;;;5.30;58.10;;;3.52;62.74;101821.28;12256618;19;19917;-92
2023/01/26 11:07:23;;;;;;;;;;;5.30;58.10;;;3.14;62.74;101767.38;12250322;19;19931;-92
2023/01/26 11:11:28;;;;;;;;;;;5.30;58.20;;;3.29;62.82;101781.03;12253983;19;19930;-91
2023/01/26 11:16:07;;;;;;;;;;;5.50;58.20;;;3.16;62.84;101760.44;12250635;19;19926;-92
2023/01/26 11:20:52;;;;;;;;;;;5.30;58.10;;;3.45;62.82;101792.03;12249836;19;19923;-92
2023/01/26 11:25:10;;;;;;;;;;;5.30;58.10;;;2.96;62.79;101720.19;12238282;19;20587;-90
2023/01/26 11:29:30;;;;;;;;;;;5.30;58.20;;;3.38;62.77;101787.81;12251286;19;19947;-90
2023/01/26 11:33:49;;;;;;;;;;;5.30;58.10;;;3.61;62.82;101812.59;12247279;19;19926;-89
2023/01/26 11:38:31;;;;;;;;;;;5.30;58.10;;;3.24;63.03;101741.47;12252172;19;20293;-90
2023/01/26 11:47:52;;;;;;;;;;;5.30;58.10;;;3.52;62.87;101805.78;12250275;19;19927;-89
2023/01/26 11:52:21;;;;;;;;;;;5.40;58.10;;;3.53;63.00;101799.72;12248489;19;20270;-89
2023/01/26 11:56:54;;;;;;;;;;;5.20;58.10;;;3.09;62.89;101723.53;12246621;19;19915;-89
2023/01/26 12:01:04;;;;;;;;;;;5.20;58.00;;;3.27;62.79;101753.50;12249316;19;19922;-89
2023/01/26 12:05:21;;;;;;;;;;;5.20;58.40;;;3.51;62.97;101783.38;12245891;19;19926;-89
2023/01/26 12:09:32;;;;;;;;;;;5.20;58.00;;;3.52;62.67;101772.22;12249459;19;19930;-89
2023/01/26 12:13:43;;;;;;;;;;;5.20;58.10;;;3.04;62.80;101690.00;12251522;19;19914;-89
2023/01/26 12:18:10;;;;;;;;;;;5.20;58.10;;;3.05;62.80;101684.00;12249022;19;19919;-90
2023/01/26 12:22:37;;;;;;;;;;;5.20;58.10;;;3.04;62.99;101682.28;12249606;19;19952;-89
2023/01/26 12:26:45;;;;;;;;;;;5.20;58.10;;;3.08;62.92;101683.97;12245688;19;19923;-89
2023/01/26 12:36:39;;;;;;;;;;;5.30;58.50;;;3.57;62.93;101749.78;12243316;19;19919;-90
2023/01/26 12:46:49;;;;;;;;;;;5.30;58.10;;;3.53;62.84;101745.50;12254239;19;19914;-90
2023/01/26 12:57:06;;;;;;;;;;;5.20;58.10;;;3.63;62.98;101741.13;12248122;19;19914;-90
2023/01/26 13:11:06;;;;;;;;;;;5.40;58.10;;;3.48;62.89;101709.41;12243758;19;19925;-90
2023/01/26 13:15:31;;;;;;;;;;;5.20;58.00;;;3.66;62.84;101741.09;12249449;19;19936;-89
2023/01/26 13:19:50;;;;;;;;;;;5.40;58.10;;;3.65;63.00;101745.41;12256909;19;20278;-89
2023/01/26 13:23:56;;;;;;;;;;;5.20;57.90;;;3.20;62.90;101685.56;12259936;19;19946;-91
2023/01/26 13:28:26;;;;;;;;;;;5.40;58.00;;;3.49;62.80;101723.19;12258069;19;20283;-90
2023/01/26 13:32:30;;;;;;;;;;;5.40;58.00;;;3.68;62.77;101749.69;12254975;19;20334;-89
2023/01/26 13:36:38;;;;;;;;;;;5.40;58.10;;;3.13;62.77;101652.94;12254016;19;20295;-90
2023/01/26 13:40:48;;;;;;;;;;;5.40;58.00;;;3.25;62.80;101688.13;12257165;19;19919;-89
2023/01/26 13:44:57;;;;;;;;;;;5.60;58.20;;;3.24;62.88;101692.44;12252363;19;19987;-91
2023/01/26 13:49:49;;;;;;;;;;;5.50;58.10;;;3.70;62.80;101760.81;12252820;19;19914;-90
2023/01/26 13:58:52;;;;;;;;;;;5.40;58.00;;;3.40;62.84;101742.16;12258016;19;19918;-89
2023/01/26 14:02:54;;;;;;;;;;;5.40;57.90;;;3.12;62.86;101687.38;12257449;19;19922;-89
2023/01/26 14:07:05;;;;;;;;;;;5.40;58.10;;;3.49;62.70;101755.00;12252362;19;19918;-89
2023/01/26 14:11:16;;;;;;;;;;;5.30;57.90;;;3.17;62.90;101700.25;12255136;19;19940;-89
2023/01/26 14:15:21;;;;;;;;;;;5.30;58.00;;;3.41;62.79;101738.75;12253661;19;19938;-89
2023/01/26 14:19:24;;;;;;;;;;;5.30;58.00;;;3.36;62.67;101735.34;12255080;19;19914;-89
2023/01/26 14:23:28;;;;;;;;;;;5.30;58.00;;;3.38;62.66;101745.66;12254931;19;19929;-89
2023/01/26 14:27:41;;;;;;;;;;;5.30;58.00;;;3.22;62.72;101706.22;12255343;19;19988;-89
2023/01/26 14:31:42;;;;;;;;;;;5.30;58.00;;;2.98;62.68;101676.31;12252716;19;20322;-89
2023/01/26 14:35:55;;;;;;;;;;;5.30;58.00;;;3.15;62.87;101692.50;12245541;19;19926;-90
2023/01/26 14:40:19;;;;;;;;;;;5.30;58.00;;;3.12;62.85;101689.94;12251711;19;19919;-89
2023/01/26 14:44:21;;;;;;;;;;;5.30;58.00;;;3.13;62.93;101704.56;12254517;19;19919;-89
2023/01/26 14:48:26;;;;;;;;;;;5.30;58.10;;;3.14;62.90;101698.53;12253183;19;19911;-89
2023/01/26 14:52:32;;;;;;;;;;;5.30;58.00;;;2.88;62.83;101657.47;12252829;19;19926;-89
2023/01/26 14:56:39;;;;;;;;;;;5.30;58.00;;;3.37;62.72;101749.94;12245819;19;19915;-89
2023/01/26 15:00:41;;;;;;;;;;;5.30;58.00;;;3.10;62.61;101705.44;12249494;19;19914;-89
2023/01/26 15:04:56;;;;;;;;;;;5.40;58.00;;;3.19;62.87;101726.91;12248540;19;19949;-89
2023/01/26 15:09:03;;;;;;;;;;;5.30;58.00;;;2.95;62.70;101682.38;12252474;19;19922;-88
2023/01/26 15:13:09;;;;;;;;;;;5.50;58.10;;;3.13;62.78;101703.69;12249649;19;19939;-89
2023/01/26 15:17:37;;;;;;;;;;;5.30;58.00;;;3.61;62.79;101779.84;12251696;19;19949;-89
2023/01/26 15:21:39;;;;;;;;;;;5.30;57.90;;;2.88;62.78;101665.22;12252689;19;19914;-89
2023/01/26 15:25:40;;;;;;;;;;;5.30;57.90;;;3.07;62.89;101694.28;12250746;19;19923;-89
2023/01/26 15:29:44;;;;;;;;;;;5.30;57.90;;;3.17;62.68;101702.81;12250968;19;19948;-89
2023/01/26 15:33:45;;;;;;;;;;;5.30;57.80;;;3.61;62.52;101774.69;12249734;19;19934;-89
2023/01/26 15:37:48;;;;;;;;;;;5.30;57.70;;;2.87;62.57;101654.03;12252985;19;19914;-90
2023/01/26 15:42:00;;;;;;;;;;;5.30;57.60;;;3.54;62.78;101780.81;12250981;19;19918;-89
2023/01/26 15:46:02;;;;;;;;;;;5.20;57.70;;;3.08;62.85;101707.19;12248460;19;20352;-89
2023/01/26 15:50:04;;;;;;;;;;;5.20;57.80;;;3.53;62.64;101781.66;12250060;19;19922;-89
2023/01/26 15:54:05;;;;;;;;;;;5.20;57.80;;;3.04;62.77;101702.91;12248571;19;20265;-89
2023/01/26 16:03:22;;;;;;;;;;;5.20;57.80;;;3.50;62.91;101781.69;12237188;19;19946;-89
2023/01/26 16:07:25;;;;;;;;;;;5.20;57.80;;;3.50;62.90;101781.69;12242102;19;20305;-89
2023/01/26 16:11:30;;;;;;;;;;;5.20;57.80;;;3.50;62.75;101785.13;12249925;19;19926;-91
2023/01/26 16:15:43;;;;;;;;;;;5.20;57.90;;;3.52;62.80;101790.28;12255182;19;19923;-90
2023/01/26 16:19:46;;;;;;;;;;;5.20;57.90;;;3.06;62.55;101721.81;12258490;19;19918;-91
2023/01/26 16:23:48;;;;;;;;;;;5.20;57.90;;;3.08;62.74;101719.25;12259714;19;19911;-90
2023/01/26 16:27:50;;;;;;;;;;;5.20;57.90;;;3.06;62.78;101714.09;12262703;19;19922;-90
2023/01/26 16:31:51;;;;;;;;;;;5.20;57.90;;;3.29;62.75;101751.75;12261102;19;20320;-90
2023/01/26 16:35:54;;;;;;;;;;;5.20;57.90;;;3.17;62.64;101737.22;12260700;19;19925;-90
2023/01/26 16:39:55;;;;;;;;;;;5.20;57.80;;;3.07;62.71;101708.03;12258625;19;19923;-90
2023/01/26 16:43:59;;;;;;;;;;;5.50;58.00;;;2.92;62.78;101673.78;12261351;19;19935;-90
2023/01/26 16:48:01;;;;;;;;;;;5.20;57.80;;;2.98;62.76;101690.06;12263249;19;20260;-90
2023/01/26 16:52:03;;;;;;;;;;;5.20;57.90;;;3.08;62.89;101709.78;12261048;19;19914;-90
2023/01/26 16:56:08;;;;;;;;;;;5.20;57.80;;;3.26;62.67;101736.28;12259030;19;19915;-90
2023/01/26 17:00:18;;;;;;;;;;;5.20;57.80;;;3.55;62.80;101791.09;12258474;19;19919;-90
2023/01/26 17:04:20;;;;;;;;;;;5.20;57.80;;;3.35;62.79;101754.28;12242748;19;19925;-90
2023/01/26 17:08:24;;;;;;;;;;;5.30;57.90;;;3.01;62.77;101697.78;12259802;19;19919;-90
2023/01/26 17:12:26;;;;;;;;;;;5.50;58.00;;;3.10;62.75;101720.91;12257638;19;19943;-90
2023/01/26 17:16:28;;;;;;;;;;;5.50;58.00;;;3.08;62.82;101720.09;12253783;19;20343;-91
2023/01/26 17:20:32;;;;;;;;;;;5.40;57.90;;;3.05;62.78;101724.41;12258483;19;19933;-93
2023/01/26 17:29:46;;;;;;;;;;;5.30;57.70;;;3.44;62.82;101774.00;12255718;19;19978;-91
2023/01/26 17:33:50;;;;;;;;;;;5.20;57.80;;;2.89;62.88;101679.84;12255945;19;19923;-90
2023/01/26 17:37:55;;;;;;;;;;;5.30;57.80;;;2.94;62.70;101701.28;12255648;19;19986;-91
2023/01/26 17:42:08;;;;;;;;;;;5.20;57.70;;;3.13;62.70;101732.94;12258427;19;19928;-91
2023/01/26 17:46:23;;;;;;;;;;;5.20;57.80;;;2.95;62.63;101699.56;12252009;19;19932;-91
2023/01/26 17:50:33;;;;;;;;;;;5.20;57.80;;;3.03;62.60;101719.28;12258268;19;19975;-90
2023/01/26 17:54:40;;;;;;;;;;;5.20;57.80;;;2.84;62.59;101685.03;12246445;19;19919;-91
2023/01/26 17:58:42;;;;;;;;;;;5.20;57.80;;;3.00;62.54;101721.88;12254442;19;20357;-91
2023/01/26 18:02:46;;;;;;;;;;;5.30;57.90;;;3.50;62.70;101798.03;12255169;19;19978;-91
2023/01/26 18:06:50;;;;;;;;;;;5.30;58.00;;;2.90;62.65;101706.50;12251182;19;19914;-91
2023/01/26 18:10:59;;;;;;;;;;;5.20;57.90;;;3.23;62.77;101760.41;12254151;19;20329;-93
2023/01/26 18:15:36;;;;;;;;;;;5.20;57.80;;;2.76;62.78;101688.53;12254944;19;19919;-91
2023/01/26 18:20:03;;;;;;;;;;;;;;;;;;;;;
2023/01/26 18:24:24;;;;;;;;;;;5.40;58.00;;;3.09;62.54;101762.22;12251790;19;19921;-92
2023/01/26 18:28:33;;;;;;;;;;;5.40;57.90;;;3.10;62.85;101763.94;12252345;19;19933;-91
2023/01/26 18:32:52;;;;;;;;;;;;;;;;;;;;;
2023/01/26 18:37:11;;;;;;;;;;;5.20;57.90;;;3.46;62.88;101817.00;12250063;19;19922;-91
2023/01/26 18:41:34;;;;;;;;;;;5.20;57.80;;;2.97;62.77;101741.66;12251335;19;19915;-91
2023/01/26 18:46:26;;;;;;;;;;;5.30;57.90;;;3.27;62.67;101794.81;12248309;19;19929;-90
2023/01/26 18:51:04;;;;;;;;;;;5.30;58.00;;;3.47;62.97;101823.88;12249761;19;20337;-91
2023/01/26 18:55:25;;;;;;;;;;;;;;;;;;;;;
2023/01/26 18:59:39;;;;;;;;;;;5.20;57.90;;;2.95;62.67;101735.69;12249114;19;20359;-91
2023/01/26 19:03:46;;;;;;;;;;;5.10;57.80;;;2.97;62.67;101750.28;12249988;19;19923;-91
2023/01/26 19:07:50;;;;;;;;;;;5.10;57.80;;;3.40;62.73;101811.88;12250730;19;19919;-91
2023/01/26 19:11:56;;;;;;;;;;;5.40;58.10;;;2.85;62.56;101740.03;12249446;19;19911;-91
2023/01/26 19:16:31;;;;;;;;;;;5.10;57.90;;;2.73;62.78;101712.63;12241074;19;19922;-90
2023/01/26 19:20:33;;;;;;;;;;;5.10;57.80;;;2.81;62.71;101728.06;12243457;19;19918;-91
2023/01/26 19:24:58;;;;;;;;;;;;;;;;;;;;;
2023/01/26 19:29:12;;;;;;;;;;;5.30;58.00;;;2.83;62.63;101747.78;12246639;19;19912;-91
2023/01/26 19:38:16;;;;;;;;;;;5.10;58.20;;;2.94;62.79;101758.03;12239846;19;19915;-91
2023/01/26 19:42:20;;;;;;;;;;;5.10;57.90;;;2.81;62.76;101725.47;12245051;19;19906;-91
2023/01/26 19:46:25;;;;;;;;;;;5.10;57.90;;;2.94;62.73;101750.28;12244244;19;19930;-90
2023/01/26 19:50:29;;;;;;;;;;;5.10;57.90;;;3.00;62.76;101755.44;12258878;19;19922;-91
2023/01/26 19:54:31;;;;;;;;;;;5.20;57.90;;;2.95;62.63;101751.16;12255910;19;19932;-90
2023/01/26 19:58:33;;;;;;;;;;;5.10;58.00;;;2.83;62.81;101737.47;12256825;19;19918;-91
2023/01/26 20:02:37;;;;;;;;;;;5.10;57.90;;;2.96;62.71;101748.56;12257696;19;19911;-91
2023/01/26 20:06:42;;;;;;;;;;;5.20;58.00;;;3.41;62.68;101833.41;12252615;19;19926;-90
2023/01/26 20:10:52;;;;;;;;;;;5.20;57.90;;;2.95;62.58;101762.34;12259134;19;20343;-93
2023/01/26 20:14:54;;;;;;;;;;;5.00;57.80;;;3.00;62.69;101765.75;12253312;19;20333;-92
2023/01/26 20:18:58;;;;;;;;;;;5.10;57.80;;;2.96;62.74;101764.03;12261115;19;19926;-95
2023/01/26 20:23:15;;;;;;;;;;;5.10;57.80;;;3.35;62.49;101838.59;12253662;19;19975;-92
2023/01/26 20:27:21;;;;;;;;;;;5.10;57.80;;;3.33;62.64;101824.00;12249246;19;19986;-91
2023/01/26 20:31:26;;;;;;;;;;;5.10;57.80;;;3.34;62.72;101835.16;12251342;19;19935;-91
2023/01/26 20:35:42;;;;;;;;;;;5.00;57.80;;;3.26;62.64;101824.91;12254239;19;19910;-92
2023/01/26 20:39:49;;;;;;;;;;;5.00;58.20;;;2.74;62.62;101741.84;12253103;19;19923;-92
2023/01/26 20:43:53;;;;;;;;;;;5.10;57.90;;;2.68;62.59;101729.84;12253356;19;19918;-93
2023/01/26 20:48:01;;;;;;;;;;;5.00;57.90;;;2.71;62.79;101722.09;12253846;19;19933;-93
2023/01/26 21:05:43;;;;;;;;;;;5.00;58.00;;;2.93;62.57;101758.06;12250985;19;20288;-90
2023/01/26 21:09:45;;;;;;;;;;;5.10;58.10;;;2.90;62.84;101745.19;12253077;19;19911;-90
2023/01/26 21:13:47;;;;;;;;;;;5.10;58.00;;;3.25;62.65;101801.69;12251898;19;19918;-90
2023/01/26 21:17:48;;;;;;;;;;;5.10;58.10;;;2.97;62.67;101758.03;12255486;19;19948;-89
2023/01/26 21:21:50;;;;;;;;;;;5.10;58.10;;;2.96;62.53;101743.41;12254606;19;19922;-89
2023/01/26 21:25:59;;;;;;;;;;;5.10;58.10;;;2.94;62.72;101749.44;12251766;19;19935;-90
2023/01/26 21:30:01;;;;;;;;;;;5.20;58.00;;;3.09;62.82;101780.28;12253696;19;19926;-90
2023/01/26 21:34:03;;;;;;;;;;;5.10;58.00;;;2.98;62.78;101756.31;12252999;19;19930;-89
2023/01/26 21:38:04;;;;;;;;;;;5.20;58.50;;;2.99;62.68;101748.53;12255587;19;19953;-90
2023/01/26 21:42:06;;;;;;;;;;;5.20;58.10;;;2.97;62.49;101755.44;12256406;19;19906;-89
2023/01/26 21:46:11;;;;;;;;;;;5.20;58.10;;;3.01;62.72;101758.84;12252100;19;19922;-90